Resultats Carrera 10 Km Racc 2017 Montmelo


Clasificación y resultados Carrera 10 Km Racc este evento se ha celebrado el 03 dic 2017 Cursa 10kmracc, Racc 10k en la localidad de Montmelo sobre una distancia de 10 Km tiempos de llegada

https://1.bp.blogspot.com/-CYv0NOQyvpM/WFZi3lFbiCI/AAAAAAAAPZ0/BJQpJsId678mGVB8OydOFEqaiU2Hos6tgCLcB/s1600/10km_768x480.jpg




"
1 XAVI ARENY CLUET 0:32:22 (TR 0:32:22) 1
2 ORIOL VILAPLANA VILAR 0:33:31 (TR 0:33:31) 2
3 FRANCESC CARMONA 0:34:08 (TR 0:34:08) 3
4 RAFAEL TORO 0:34:35 (TR 0:34:35) 4
5 MIKI MARZO TORRES 0:35:03 (TR 0:35:03) 5
6 LUCAS ALONSO DURَ 0:35:12 (TR 0:35:12) 6
7 PABLO PÉREZ LEَN 0:35:18 (TR 0:35:18) 7
8 XAVIER SANCHEZ PEREIRA 0:35:25 (TR 0:35:25) 8
9 EDUARDO CAMPANARIO 0:35:29 (TR 0:35:29) 9
10 POL CHERTَ SARRET 0:36:11 (TR 0:36:11) 10
11 JAUME BOSCH 0:36:32 (TR 0:36:31) 11
12 MIGUEL NOCELO ZARATE 0:36:34 (TR 0:36:34) 12
13 LUIS ROMERO PORTA 0:36:54 (TR 0:36:54) 13
14 ALEJANDRO PONS SOLE 0:37:08 (TR 0:37:06) 14
15 JOSE LUIS SANCHEZ CEBA 0:37:15 (TR 0:37:15) 15
16 GUILLEM BERNATALLADA FERRER 0:37:20 (TR 0:37:20) 16
17 EMILIO OREJUDO RAMيREZ 0:37:38 (TR 0:37:38) 17
18 DAVID DELGADO MADURELL 0:37:40 (TR 0:37:40) 18
19 JORDI ROYES YUBERO 0:37:42 (TR 0:37:42) 19
20 DANIEL ROMERO MARTيNEZ 0:37:54 (TR 0:37:51) 20
21 MIKEL DE PRADA GIL 0:37:56 (TR 0:37:56) 21
22 ALVARO CLERICO RHODES 0:38:42 (TR 0:38:41) 22
23 JOAN FRANCESC ROCA BARJUAN 0:38:53 (TR 0:38:53) 23
24 RAFA CARQUES PEREZ 0:38:56 (TR 0:38:54) 24
25 MARIO GIL HERNANDEZ 0:39:10 (TR 0:39:10) 25
26 RAFA PUERTO CASALS 0:39:13 (TR 0:39:12) 26
27 GUILLEM LANCHO MAGEM 0:39:13 (TR 0:39:13) 27
28 JOSE MANUEL SلNCHEZ LَPEZ 0:39:15 (TR 0:39:13) 28
29 OSCAR SHIGÜE VELEPUCHA 0:39:21 (TR 0:39:21) 29
30 RICARD NAVARRO SERRANO 0:39:25 (TR 0:39:25) 30
31 MIGUEL DIAZ CALDERَN 0:39:30 (TR 0:39:30) 31
32 MANOLO ROMERO DEL PERAL 0:39:34 (TR 0:39:32) 32
33 MERITXELL VELASCO AYGUASANOSA 0:39:34 (TR 0:39:34) 1
34 OSCAR PEREZ 0:39:38 (TR 0:39:35) 33
35 ISIDOR ESPIGARES GARCيA 0:39:42 (TR 0:39:42) 34
36 FERNANDO TARQUI 0:39:45 (TR 0:39:44) 35
37 RAFAEL GOMEZ SOLER 0:39:46 (TR 0:39:46) 36
38 SIN DATOS DEL DORSAL 1603 0:39:47 (TR 0:39:44) 37
39 PABLO GASCَN GONZلLEZ 0:39:50 (TR 0:39:50) 38
40 SANTIAGO BUISلN CERECEDA 0:39:52 (TR 0:39:49) 39
41 DAVID DE LA VEGA BLANCH 0:40:06 (TR 0:40:05) 40
42 NACHO LَPEZ 0:40:06 (TR 0:40:06) 41
43 JORDI CلNOVAS RIPOLL 0:40:09 (TR 0:40:07) 42
44 CARLES MARTI BENEDICTO 0:40:10 (TR 0:40:10) 43
45 TXELL CALDUCH PRAT 0:40:15 (TR 0:40:15) 2
46 ALBERT ALQUÉZAR REQUENA 0:40:16 (TR 0:40:14) 44
47 JORDI MANEU VICTORIA 0:40:20 (TR 0:40:18) 45
48 JAVI ROMERO 0:40:25 (TR 0:40:25) 46
49 ALEX RAMَN GَMEZ 0:40:27 (TR 0:40:25) 47
50 ERNEST OLIVAN 0:40:40 (TR 0:40:40) 48
51 MIQUEL CORREDOR MARTيNEZ 0:40:43 (TR 0:40:39) 49
52 JUAN DOMINGO TRINIDAD OJEDA 0:40:46 (TR 0:40:44) 50
53 JOSÉ MARTيN PELلEZ 0:40:48 (TR 0:40:43) 51
54 LUIS PRATS SلNCHEZ 0:40:50 (TR 0:40:42) 52
55 ANTONI SUلREZ PÉREZ 0:40:54 (TR 0:40:50) 53
56 PAU JUAN INIESTA 0:40:55 (TR 0:40:51) 54
57 JONATHAN ANTONI CIERCO 0:40:56 (TR 0:40:53) 55
58 JOSÉ FERMيN PUERTAS MORENO 0:41:00 (TR 0:40:59) 56
59 JORDI SERRAT 0:41:06 (TR 0:40:59) 57
60 DAVID PAGES BUSQUETA 0:41:06 (TR 0:41:04) 58
61 ROLANDO DE LOS REYES CAMPOY 0:41:11 (TR 0:41:10) 59
62 JAVIER RUIZ VILLAOSLADA 0:41:14 (TR 0:41:10) 60
63 JORDI ALFONSO IBAٌEZ 0:41:17 (TR 0:41:15) 61
64 MARC SANTANDER AGUSI 0:41:19 (TR 0:41:07) 62
65 POL MAS LLOPART 0:41:24 (TR 0:41:21) 63
66 ALBERT HINTZMANN COLOMINAS 0:41:29 (TR 0:41:29) 64
67 GUILLERMO GIRONA SAN MIGUEL 0:41:30 (TR 0:41:28) 65
68 VICTOR SERRANO LOPEZ 0:41:35 (TR 0:41:30) 66
69 ROBERTO GRUESO PÉREZ 0:41:41 (TR 0:41:14) 67
70 JOSE MANUEL CLAVAIN CLAVAIN 0:41:41 (TR 0:41:39) 68
71 JOAN CUCURULL MOLINA 0:41:46 (TR 0:41:38) 69
72 JUAN CARLOS CHAMORRO CARRILLO 0:41:51 (TR 0:41:44) 70
73 JAVIER DELGADO HERNANDEZ 0:41:51 (TR 0:41:45) 71
74 CARLES FELEZ MONTER 0:41:54 (TR 0:41:52) 72
76 TONI ORTEGA GARCIA 0:41:56 (TR 0:41:51) 73
75 MERCÈ PUIGDUETA PAٌACH 0:41:56 (TR 0:41:53) 3
77 PABLO YBARRA SANCHEZ 0:41:57 (TR 0:41:57) 74
78 XAVIER FONTSERE 0:41:58 (TR 0:41:58) 75
79 LLUIS PUCHOL ANDREU 0:42:01 (TR 0:41:58) 76
80 MARC COLLADO 0:42:06 (TR 0:42:03) 77
81 FREDERIC RABASA 0:42:08 (TR 0:42:07) 78
82 ANTONIO SEGUI 0:42:11 (TR 0:42:06) 79
83 RICARDO VIDAL BECERRIL 0:42:12 (TR 0:42:08) 80
84 JORDI MELÉNDEZ CARRASCO 0:42:14 (TR 0:41:44) 81
86 IGNASI LLOP RAFALES 0:42:20 (TR 0:42:13) 83
87 RICCARDO SQUARCINA 0:42:20 (TR 0:42:14) 84
85 JAVIER SALINAS ORTEGA 0:42:20 (TR 0:42:20) 82
88 DAVID PUIG RODRIGUEZ 0:42:23 (TR 0:42:20) 85
89 RAFAEL PÉREZ SUلREZ 0:42:29 (TR 0:42:01) 86
90 DANIEL ELVIRA 0:42:30 (TR 0:42:23) 87
91 ALFREDO MUIٌO AYALA 0:42:32 (TR 0:42:29) 88
92 ANTONI BAEZA RIERA 0:42:33 (TR 0:42:29) 89
93 JORDI SIMEON SALA 0:42:34 (TR 0:42:32) 90
94 ORIOL CARPINELL AGUSTI 0:42:36 (TR 0:42:35) 91
96 PASCUAL ROLDAN HERNANDEZ 0:42:38 (TR 0:42:37) 93
97 ROSER PEREZ VILA 0:42:38 (TR 0:42:37) 4
95 ENRIC PALLACH 0:42:38 (TR 0:42:38) 92
99 LUIS MIGUEL FERRER FERNANDEZ 0:42:39 (TR 0:42:24) 95
98 MARC VILAR CARDELLACH 0:42:39 (TR 0:42:32) 94
100 MANOLO MATA GIMENEZ 0:42:40 (TR 0:42:36) 96
101 XAVIER BALAGUER FONTANALS 0:42:41 (TR 0:42:33) 97
102 DIEGO VILLALON PACHECO 0:42:44 (TR 0:42:42) 98
104 GUILLEM ORIOL MERINO MARTيNEZ 0:42:45 (TR 0:42:43) 100
103 XAVIER HABA GARCيA 0:42:45 (TR 0:42:45) 99
105 VيCTOR PÉREZ BLASCO 0:42:48 (TR 0:42:03) 101
106 ROSA Mھ MADRID GONZALEZ 0:42:50 (TR 0:42:49) 5
107 ADRI CORTÉS CALVO 0:42:52 (TR 0:42:32) 102
108 DANIEL CAMIRUAGA ORTEGA 0:42:59 (TR 0:42:49) 103
109 ANGEL GUTIERREZ VALENZUELA 0:43:05 (TR 0:42:50) 104
110 ENRIC ALEXANDRE TEMPRADO 0:43:06 (TR 0:42:40) 105
111 XAVIER CALDERَ JIMÉNEZ 0:43:07 (TR 0:43:02) 106
112 ANGEL SALA POCH 0:43:09 (TR 0:43:05) 107
113 JAUME GIMENO JUAN 0:43:10 (TR 0:43:06) 108
114 MARC TOSCA MARTIN 0:43:10 (TR 0:43:10) 109
115 RAFAEL MARISCAL VARGAS 0:43:11 (TR 0:42:31) 110
116 MIGUEL ANGEL BALLESTEROS BARBA 0:43:11 (TR 0:42:56) 111
117 JAUME PARRAMON TOVAL 0:43:11 (TR 0:43:10) 112
118 TONI MERA GARCIA 0:43:14 (TR 0:42:26) 113
119 MANUEL SERRANO GARRIDO 0:43:14 (TR 0:43:13) 114
120 CARLOS GORDO 0:43:15 (TR 0:42:48) 115
121 JOAN HERNANDEZ CUTILLAS 0:43:20 (TR 0:43:19) 116
123 ALBERT MONTSERRAT 0:43:22 (TR 0:43:01) 118
122 MANEL PUERTAS NUٌEZ 0:43:22 (TR 0:43:18) 117
124 SALVADOR PEREZ CAYUELA 0:43:24 (TR 0:43:22) 119
125 JORDI LUCIA OLIVERAS 0:43:31 (TR 0:43:31) 120
126 JORDI COROMINAS JَDAR 0:43:34 (TR 0:43:34) 121
127 RICARD AMORES LَPEZ 0:43:35 (TR 0:43:35) 122
128 JULI PEINADO CLAPÉS 0:43:36 (TR 0:43:19) 123
129 ANTONIO LUIS ABARCA LORENZO 0:43:37 (TR 0:43:29) 124
130 MANEL MARTيNEZ PACHECO 0:43:38 (TR 0:43:36) 125
131 OSCAR ASIN 0:43:39 (TR 0:43:30) 126
132 JOSÉ ANTONIO RODRيGUEZ GIMÉNEZ 0:43:42 (TR 0:43:40) 127
133 IVAN MORENO REMOLAR 0:43:43 (TR 0:43:27) 128
135 ANGEL FERNANDEZ ALVAREZ 0:43:48 (TR 0:43:09) 130
134 PEDRO ROLDلN VILLAR 0:43:48 (TR 0:43:47) 129
136 JORDI FONTQUERNI FREIXA 0:43:49 (TR 0:43:44) 131
137 JAVI RAMَN GَMEZ 0:43:51 (TR 0:43:44) 132
138 YERUSA AZOR EXPOSITO 0:43:53 (TR 0:43:32) 6
139 ADRIلN CAٌADAS GONZلLEZ 0:43:55 (TR 0:43:29) 133
140 JORGE DE LUQUE ءLVAREZ 0:43:56 (TR 0:43:42) 134
141 JORDI RIBAS RENIU 0:43:58 (TR 0:43:56) 135
142 JORDI CHACON ROQUER 0:44:01 (TR 0:44:01) 136
143 GERARD MADORELL SALA 0:44:03 (TR 0:43:18) 137
144 SERGI AVILA SANGÜESA 0:44:07 (TR 0:44:02) 138
145 JOAQUIM PEIX PUJOL 0:44:09 (TR 0:44:00) 139
146 FERNANDO MEAVILLA MALO 0:44:09 (TR 0:44:07) 140
147 ALEX RODRIGUEZ PEREZ 0:44:10 (TR 0:43:30) 141
148 XÈNIA MOURELO 0:44:11 (TR 0:44:09) 7
149 FRANCISCO TEVA LOPEZ 0:44:13 (TR 0:43:33) 142
150 EDWIN FERNANDO LَPEZ YلNEZ 0:44:14 (TR 0:44:04) 143
151 ALBERT GARCيA VALENTي 0:44:14 (TR 0:44:08) 144
152 JORDI CLOPÉS COLLBATALLÉ 0:44:17 (TR 0:44:12) 145
153 PEDRO DE DIOS GOMEZ 0:44:18 (TR 0:44:06) 146
155 IVAN GONZALEZ BONIL 0:44:19 (TR 0:44:00) 148
154 ENRIC ROCA DOMINGUEZ 0:44:19 (TR 0:44:18) 147
156 MARIO PINIES PEREA 0:44:21 (TR 0:44:08) 149
157 AITOR BARROSO 0:44:22 (TR 0:44:20) 150
158 ALBERT FARRÉ PELLEJÀ 0:44:27 (TR 0:43:34) 151
159 GERMلN SANCHEZ NIBEYRO 0:44:28 (TR 0:44:01) 152
160 VICTOR MANUEL OLIVARES CANTARERO 0:44:30 (TR 0:44:29) 153
162 SERGI DيAZ VALDIVIA 0:44:33 (TR 0:44:27) 155
161 FRANCISCO GALERA SANCHEZ 0:44:33 (TR 0:44:29) 154
163 FRAN MUٌOZ PEREZ 0:44:34 (TR 0:44:07) 156
164 MIQUEL DE LOS S VELASCO FARGAS 0:44:35 (TR 0:43:59) 157
165 JOSEP TORT BAٌOS 0:44:39 (TR 0:43:52) 158
166 JORDI CASALS PAMIES 0:44:40 (TR 0:44:25) 159
167 JUANMA ROSA FERNلNDEZ 0:44:41 (TR 0:44:25) 160
168 DAVID FERNلNDEZ MEDINA 0:44:44 (TR 0:44:32) 161
169 SALVA ARTÉS 0:44:45 (TR 0:44:45) 162
170 DANIEL SAGUÉS GISPERT 0:44:47 (TR 0:44:38) 163
172 JORDI CANYELLES I TORRENTS 0:44:49 (TR 0:44:41) 165
171 JOSE ANTONIO GARCIA SANCHEZ 0:44:49 (TR 0:44:43) 164
173 DAVID LLORET I HERNANDO 0:44:50 (TR 0:44:35) 166
174 LLUيS PÉREZ MAٌA 0:44:51 (TR 0:44:48) 167
175 SERGIO CASTILLA 0:44:53 (TR 0:44:48) 168
176 POL VIUSSÀ 0:44:56 (TR 0:44:33) 169
177 MIQUEL CARRIَN PARÉS 0:44:57 (TR 0:44:21) 170
178 SERGIO SANCHيS SلNCHEZ 0:44:57 (TR 0:44:40) 171
179 JORDI URTASUN CORTES 0:44:58 (TR 0:44:55) 172
180 ANTONIO RECIO CASADO 0:45:00 (TR 0:44:57) 173
181 XAVIER PORCEL PEREZ 0:45:02 (TR 0:45:00) 174
182 FRANCISCO RODRيGUEZ SلNCHEZ 0:45:03 (TR 0:44:45) 175
183 ALBERTO RUIZ 0:45:05 (TR 0:44:43) 176
184 JOSEP LLUIS FRANCH HERNANDEZ 0:45:06 (TR 0:44:46) 177
185 TONI GRANADOS MIRANDA 0:45:07 (TR 0:45:01) 178
186 JAVIER VILLALBA SOLER 0:45:08 (TR 0:44:44) 179
187 ROBERTO MURO 0:45:17 (TR 0:45:05) 180
188 LORENA MARMANEU GIL 0:45:18 (TR 0:45:12) 8
189 JORDI IZQUIERDO FIGAROLA 0:45:19 (TR 0:45:08) 181
190 JOAN CARLES PELEGRIN SANCHEZ 0:45:20 (TR 0:45:09) 182
191 NACHO ALEGRE VICIANA 0:45:21 (TR 0:44:36) 183
192 ROSS MURRAY 0:45:22 (TR 0:45:07) 184
193 FERNANDO HOLTHOEFER 0:45:23 (TR 0:44:40) 185
194 XAVI SERRA MARQUEZ 0:45:23 (TR 0:44:58) 186
195 DANIEL JARIA PANTANO 0:45:26 (TR 0:45:04) 187
196 JORDI VALLS VELASCO 0:45:26 (TR 0:45:05) 188
197 MARCO ANTONIO ESCOBAR CARRERA 0:45:26 (TR 0:45:21) 189
198 JORDI SANCHEZ MATA 0:45:29 (TR 0:44:55) 190
199 RAUL GUERRERO LLURDÉS 0:45:30 (TR 0:45:04) 191
200 PABLO BUENAPOSADA SANCHEZ 0:45:30 (TR 0:45:15) 192
201 LOLO RUIZ-RUANO GONZALEZ 0:45:33 (TR 0:45:18) 193
203 ALBERTO ROMERO ROMERO 0:45:35 (TR 0:45:05) 195
202 MIGUEL ANGEL PARRON JIMENEZ 0:45:35 (TR 0:45:24) 194
204 PATRIZIO SODANO SODANO 0:45:37 (TR 0:45:19) 196
205 GENIS HERNANDEZ PLANA 0:45:46 (TR 0:45:39) 197
206 CARLOS MADERUELO LENO 0:45:54 (TR 0:44:56) 198
207 JORDI PARREٌO 0:45:54 (TR 0:45:35) 199
208 SERGI OLIVÉ MUNTASELL 0:45:54 (TR 0:45:44) 200
209 XAVI BARCONS 0:45:55 (TR 0:45:19) 201
211 RAْL HERNANDO GARCيA 0:45:55 (TR 0:45:47) 203
210 MARCELO RODRIGO LINCANGO SIMBA 0:45:55 (TR 0:45:49) 202
213 VICTOR MORENO GOMEZ 0:45:58 (TR 0:45:47) 205
212 JOSEP Mھ JANER RAMOS 0:45:58 (TR 0:45:51) 204
215 JOSE-LUIS REBOLLO MORENO 0:46:00 (TR 0:45:23) 207
214 EUDALD MALAGON 0:46:00 (TR 0:45:54) 206
216 XAVIER SURROCA ARAGَN 0:46:01 (TR 0:45:34) 208
217 ALBERT RODES BERENGUER 0:46:02 (TR 0:45:43) 209
218 MARC TALLَ 0:46:02 (TR 0:45:48) 210
219 JUAN J JIMENEZ NAVEROS 0:46:02 (TR 0:45:57) 211
220 JOSE ANTONIO LAGE LOPEZ 0:46:04 (TR 0:45:44) 212
221 MARTي VALLS SARRَ 0:46:05 (TR 0:45:29) 213
222 JOSEP MASO TARRES 0:46:05 (TR 0:46:05) 214
223 ANGEL MONGAY HERNANDO 0:46:06 (TR 0:45:20) 215
224 TERESA FORN MUNNÉ 0:46:08 (TR 0:46:05) 9
225 FRANCISCO JAVIE ARCE ADRIAN 0:46:12 (TR 0:46:03) 216
226 MANEL ALGUACIL FLORES 0:46:13 (TR 0:45:57) 217
227 GREGO NIETO PUNZANO 0:46:16 (TR 0:45:54) 218
228 VICTOR RODRIGUEZ SANCHEZ 0:46:18 (TR 0:45:59) 219
229 RICARDO RIVAS GَMEZ 0:46:25 (TR 0:45:25) 220
230 DANIEL LOPEZ VICTORI 0:46:27 (TR 0:46:03) 221
231 JOSE MARIA TERRER 0:46:29 (TR 0:46:00) 222
232 MANEL VAZQUEZ VILADOMS 0:46:30 (TR 0:45:42) 223
233 LEONARDO YESTE 0:46:30 (TR 0:46:08) 224
234 ANTONI FONT ROCA 0:46:32 (TR 0:46:20) 225
235 SUSANA GARCيA MONTES 0:46:32 (TR 0:46:20) 10
236 ABEL LOPEZ VIZCAINO 0:46:34 (TR 0:46:01) 226
237 RAUL AGUT LOPEZ 0:46:35 (TR 0:45:44) 227
238 JOAN FERRERES SERAFINI 0:46:36 (TR 0:45:50) 228
239 JAVIER SلNCHEZ ءLVAREZ 0:46:37 (TR 0:46:32) 229
240 JORDI ANTON MARTINEZ 0:46:38 (TR 0:45:57) 230
241 ASSEF EÏD I TUR 0:46:39 (TR 0:46:12) 231
242 OSCAR LOPEZ SISO 0:46:39 (TR 0:46:15) 232
243 VICTOR MARTINEZ GIL 0:46:40 (TR 0:45:45) 233
244 LLUيS GIRَ 0:46:41 (TR 0:46:16) 234
245 JOSEP FARRERO 0:46:43 (TR 0:46:27) 235
246 JORDI VILASECA POSA 0:46:44 (TR 0:46:18) 236
248 IGOR ESCOBAR COLLDEFORNS 0:46:47 (TR 0:46:29) 238
247 GREGORIO RODRIGUEZ JIMENEZ 0:46:47 (TR 0:46:44) 237
249 JOSE ANTONIO EGEA LOPEZ 0:46:48 (TR 0:46:26) 239
250 SERGIO MERCHAN HERRERA 0:46:50 (TR 0:46:13) 240
252 GABI GILI CANTARELL 0:46:52 (TR 0:46:18) 242
251 JAVI GONZALEZ 0:46:52 (TR 0:46:39) 241
253 ARTUR PASTOR 0:46:54 (TR 0:46:46) 243
254 ERIC RUIZ ALONSO 0:46:56 (TR 0:46:43) 244
255 DAVID SANCHO MORENO 0:46:57 (TR 0:46:34) 245
256 JORDI GARRIGA GIMENEZ 0:46:58 (TR 0:46:21) 246
258 DANIEL SORIA CRESPO 0:46:59 (TR 0:46:28) 248
257 JORDI CASSI GIMENO 0:46:59 (TR 0:46:49) 247
259 MIGUEL لNGEL BERLANGA MUٌOZ 0:47:00 (TR 0:46:04) 249
260 MARJON BLONDEEL 0:47:00 (TR 0:46:34) 11
261 JORDI HERNلNDEZ 0:47:03 (TR 0:46:49) 250
262 RAUL FERNلNDEZ MUٌOZ 0:47:04 (TR 0:46:53) 251
264 JOSEP MARIA COMAS PINEDA 0:47:05 (TR 0:46:49) 252
263 ANA PÉREZ-VICO 0:47:05 (TR 0:46:52) 12
266 AGUSTI SALA ROCA 0:47:08 (TR 0:46:49) 254
265 JOSE ANTONIO RUIZ DيAZ 0:47:08 (TR 0:46:57) 253
267 CESAR BEIZTEGUI RAMOS 0:47:09 (TR 0:46:48) 255
268 SERGI SISَ ROMلN 0:47:12 (TR 0:46:50) 256
269 EVA NOCELO ZلRATE 0:47:12 (TR 0:47:08) 13
270 JORDI GALLARDO 0:47:13 (TR 0:46:54) 257
271 CRISTIAN ALCARAZ 0:47:18 (TR 0:46:49) 258
272 JOSÉ LUIS FERNلNDEZ BASTIDA 0:47:27 (TR 0:46:38) 259
273 CARLOS PÉREZ GRANADOS 0:47:28 (TR 0:47:07) 260
274 VICTOR MURIA BADIA 0:47:29 (TR 0:46:39) 261
275 MARCEL FERRER 0:47:32 (TR 0:47:04) 262
276 MIQUEL PÉREZ 0:47:33 (TR 0:47:01) 263
277 FREDERIC PASCUAL 0:47:35 (TR 0:47:23) 264
278 CRISTINA CAMPOAMOR CELA 0:47:36 (TR 0:47:30) 14
279 PACO VELASCO ALCARAZ 0:47:37 (TR 0:47:01) 265
280 FRANCESC SAGALÉS TORRA 0:47:38 (TR 0:47:10) 266
281 MARC RUIZ SAGALÉS 0:47:39 (TR 0:47:11) 267
282 FRANCESC VICENÇ LLAMAS PIQUERAS 0:47:41 (TR 0:47:26) 268
283 JORDI PINTADO 0:47:42 (TR 0:47:04) 269
284 DAVID MARTINEZ PEREZ 0:47:45 (TR 0:47:31) 270
285 JOAN SALVÀ 0:47:46 (TR 0:46:51) 271
286 CARLOS ALFEREZ CRUZ 0:47:46 (TR 0:47:26) 272
287 EMILIANO BARRENA GOMEZ 0:47:47 (TR 0:47:23) 273
288 PAQUI MIRANDA MEDINA 0:47:48 (TR 0:47:47) 15
289 JOSE GARCIA TEJEDOR 0:47:49 (TR 0:47:29) 274
290 JOSÉ PERAL 0:47:53 (TR 0:46:45) 275
292 MANEL TAMAYO SANCHEZ 0:47:53 (TR 0:47:15) 277
291 JORDI LLONCH MOMPEL 0:47:53 (TR 0:47:37) 276
293 INAKI URIBARRI 0:47:54 (TR 0:47:11) 278
294 FEDE BERRUEZO SIMَN 0:47:56 (TR 0:47:38) 279
296 LUIS MANUEL BODERO MARIٌO 0:47:57 (TR 0:47:13) 281
295 MIGUEL FERNلNDEZ-RAMOS 0:47:57 (TR 0:47:41) 280
297 MANEL JAEN 0:47:58 (TR 0:47:55) 282
298 SIN DATOS DEL DORSAL 1601 0:48:02 (TR 0:47:50) 283
299 ESPE ZURIGUEL PEREZ 0:48:03 (TR 0:47:59) 16
300 SANTI FERNلNDEZ VILELLA 0:48:06 (TR 0:47:31) 284
301 FRANCISCO JOSÉ MALDONADO GONZALEZ 0:48:08 (TR 0:48:03) 285
302 EUDALD VALCÀRCEL LACASA 0:48:09 (TR 0:47:24) 286
303 ALBERT GARAY 0:48:10 (TR 0:47:48) 287
304 GERARD FERRÈ DOMيNGUEZ 0:48:12 (TR 0:47:54) 288
305 ANTONIO MANUEL PEREZ ORTIZ 0:48:13 (TR 0:48:07) 289
306 JAUME TERMES ASENSIO 0:48:14 (TR 0:48:09) 290
308 CRISTIAN BARRERA 0:48:17 (TR 0:47:55) 292
307 LLUيS CAMPDERRَS REYES 0:48:17 (TR 0:48:09) 291
310 ORIOL MIRET RODRيGUEZ 0:48:20 (TR 0:47:47) 294
309 LLUIS GUIRAO CANO 0:48:20 (TR 0:48:09) 293
311 ISAIAS BERMEJO MOLERO 0:48:21 (TR 0:47:53) 295
313 JOAN MIRET 0:48:22 (TR 0:47:48) 297
314 JUAN MANUEL CAZORLA SILVA 0:48:22 (TR 0:47:54) 298
312 MARC COBOS 0:48:22 (TR 0:48:04) 296
315 ROLANDO CAٌAR CHIMBORAZO 0:48:23 (TR 0:48:21) 299
316 XAVIER CARBO FRESNEDA 0:48:24 (TR 0:48:24) 300
318 IVAN ORRIOLS BENACH 0:48:25 (TR 0:47:36) 302
317 JUAN MERINO 0:48:25 (TR 0:47:53) 301
320 ROGER DIES RIBAS 0:48:26 (TR 0:47:53) 304
319 BENJAMي MONTENEGRO BERMEJO 0:48:26 (TR 0:48:14) 303
323 JOAN MARTI XIMENOS 0:48:27 (TR 0:47:47) 307
321 MARC MARIGَ PEREZ 0:48:27 (TR 0:48:02) 305
322 SISCU MORALES VERICAT 0:48:27 (TR 0:48:15) 306
324 XAVIER PADRَS RUIZ 0:48:28 (TR 0:47:20) 308
325 MARIA HIDALGO 0:48:33 (TR 0:48:11) 17
326 OCTAVI GOٌI BORRULL 0:48:36 (TR 0:48:08) 309
327 JOSÉ ARIAS MÉNDEZ 0:48:36 (TR 0:48:27) 310
328 RUBÉN LUQUE GARCIA 0:48:37 (TR 0:48:04) 311
329 XAVIER TORRENTS LASHERAS 0:48:38 (TR 0:48:33) 312
330 TXELL FERNلNDEZ MARTيNEZ 0:48:39 (TR 0:48:26) 18
331 JOSE MANUEL FRUCTUOSO 0:48:43 (TR 0:47:55) 313
332 MAITE PUEBLA RODRIGUEZ 0:48:45 (TR 0:48:18) 19
333 MARCOS CRUZ SANTIAGO 0:48:45 (TR 0:48:38) 314
334 THIERRY ANDRIEUX 0:48:47 (TR 0:48:07) 315
335 XAVIER MITJANS SOLDEVILA 0:48:48 (TR 0:48:41) 316
336 DAVID ITTAH 0:48:49 (TR 0:48:36) 317
337 JOSE ANTONIO PISA MONFORT 0:48:50 (TR 0:47:53) 318
339 JAVIER CONDE DURAN 0:48:52 (TR 0:48:07) 320
340 JOSE RODRIGUEZ BARRAGAN 0:48:52 (TR 0:48:18) 321
338 ANTONIO LASAOSA VALERO 0:48:52 (TR 0:48:22) 319
341 JOSE MANUEL LOPEZ CANO 0:48:53 (TR 0:48:13) 322
342 GONZALO GUERRERO JAUREGUIZAR 0:48:55 (TR 0:48:05) 323
343 EDUARDO MARTINEZ PELLICER 0:48:56 (TR 0:48:15) 324
344 MANUEL TERRَN ROBLEDO 0:48:57 (TR 0:47:59) 325
345 XESCO MORELL BLASI 0:48:59 (TR 0:48:13) 326
346 DAVID CANET DONAIRE 0:49:00 (TR 0:48:44) 327
347 JORDI SANLLEHI BITRIA 0:49:00 (TR 0:48:46) 328
350 MARC ARMENGOL 0:49:01 (TR 0:48:22) 331
348 JOAN BALCELLS RAMيREZ 0:49:01 (TR 0:48:23) 329
349 ALBERTO DOMINGO PERIS 0:49:01 (TR 0:48:42) 330
352 JORDI MONREAL TORRELLA 0:49:04 (TR 0:48:39) 332
351 MARTA BISBAL GONZALEZ 0:49:04 (TR 0:48:52) 20
353 JUAN CARLOS JIMENEZ DELGADO 0:49:05 (TR 0:48:17) 333
354 KEVIN AGUILAR 0:49:06 (TR 0:48:12) 334
355 JAVIER SOLANA SلNCHEZ 0:49:06 (TR 0:48:29) 335
356 JUAN MANUEL PÉREZ 0:49:08 (TR 0:48:49) 336
357 ALBERT GUTIÉRREZ GALISTEO 0:49:10 (TR 0:48:32) 337
359 MARC IBلٌEZ ROVIRA 0:49:12 (TR 0:48:14) 339
358 AURELIO GOMEZ ROCA 0:49:12 (TR 0:48:35) 338
360 XAVI VIRGILI SERRA 0:49:13 (TR 0:48:28) 340
361 MIQUEL PUIG BELMONTE 0:49:13 (TR 0:49:09) 341
362 ANTONIO GALLEGO LUNA 0:49:15 (TR 0:48:43) 342
363 JORDI CLUA 0:49:16 (TR 0:49:11) 343
365 MARIA JOSÉ HIGUERAS MARTINEZ 0:49:17 (TR 0:48:47) 21
364 JOSÉ ANTONIO JURADO FRيAS 0:49:17 (TR 0:49:05) 344
366 FELIP MUٌOZ MUٌOZ 0:49:19 (TR 0:48:59) 345
368 CARLOTA SEGALA 0:49:20 (TR 0:48:29) 22
367 FELIPE GONZALEZ MARTيN 0:49:20 (TR 0:49:15) 346
369 PERE CIFFONE SEGALÉS 0:49:21 (TR 0:49:01) 347
370 JOSE ANGEL RICO MARTIN 0:49:22 (TR 0:48:29) 348
371 DANIEL CABALLO GUERRERO 0:49:22 (TR 0:48:39) 349
373 XAVI ARIAS LOPEZ 0:49:23 (TR 0:49:02) 351
372 XAVIER MASVIDAL GARCIA 0:49:23 (TR 0:49:07) 350
374 XAVI SANCHEZ LOPEZ 0:49:24 (TR 0:48:30) 352
375 ALBERT SERRA 0:49:24 (TR 0:48:35) 353
376 JENNIFER VALENCIA DIAZ 0:49:25 (TR 0:48:31) 23
377 EMMA LARI SلNCHEZ 0:49:26 (TR 0:49:12) 24
378 CARLOS HERNANDEZ RODRIGUEZ 0:49:27 (TR 0:48:44) 354
379 PEDRO MILAGROS MOIX 0:49:32 (TR 0:48:32) 355
380 JUBRAN SALAWI SANCHEZ 0:49:32 (TR 0:48:49) 356
381 PERE TOMAS MONER 0:49:33 (TR 0:49:13) 357
382 ANTONIO FCO. MORENO CANO 0:49:34 (TR 0:49:21) 358
383 DAVID RUIZ GARCIA 0:49:36 (TR 0:49:29) 359
384 CARLOS PAZOS ALONSO 0:49:36 (TR 0:49:29) 360
386 JORDI TURU OLIVERAS 0:49:37 (TR 0:49:06) 362
387 VANESA DOMINGUEZ MENDOZA 0:49:37 (TR 0:49:19) 25
385 POL OTERO ARْS 0:49:37 (TR 0:49:29) 361
388 ROGER MARTINEZ VENTOLA 0:49:41 (TR 0:49:19) 363
390 JORDI ESQUENA MORET 0:49:45 (TR 0:49:04) 365
389 DELAI LIU 0:49:45 (TR 0:49:41) 364
392 JORDI ARIٌO MARTيN 0:49:46 (TR 0:48:57) 367
391 JUAN JOSÉ GَMEZ 0:49:46 (TR 0:48:59) 366
393 JOSE FRIAS GARCIA 0:49:47 (TR 0:48:55) 368
394 RAMON IGLESIAS 0:49:49 (TR 0:49:27) 369
395 JUAN CARLOS SUلREZ RODRيGUEZ 0:49:50 (TR 0:49:33) 370
396 CECILIA ANDION RODRIGUEZ 0:49:53 (TR 0:49:35) 26
397 MIQUEL ROCA 0:49:54 (TR 0:49:15) 371
398 RAFAEL BRACERO OSUNA 0:49:55 (TR 0:49:19) 372
399 JOSE MARIA OLIVER DOMINGUEZ 0:49:56 (TR 0:49:38) 373
400 FRANCISCO RAYA BELTRAN 0:49:56 (TR 0:49:43) 374
402 CARLOS GARCIA ARCOS 0:49:58 (TR 0:49:21) 376
401 VICENÇ TORAN PLANAS 0:49:58 (TR 0:49:28) 375
403 XAVIER PLANA MASAGUE 0:50:01 (TR 0:49:39) 377
404 JAUME SOLER QUILEZ 0:50:05 (TR 0:49:38) 378
405 JUAN LUIS RAMALLO CASTRO 0:50:05 (TR 0:49:43) 379
406 ENRIQUE RODRIGUEZ MARTIN 0:50:07 (TR 0:49:49) 380
407 DANIEL MONCLUS SOLIS 0:50:08 (TR 0:49:42) 381
408 COLOMER NOÉ JORDI 0:50:10 (TR 0:49:20) 382
409 FERRAN TOR CUADRADO 0:50:10 (TR 0:49:42) 383
410 ANTONIO SOLÀ DOMENECH 0:50:10 (TR 0:50:05) 384
411 JOSÉ JOAQUيN BARRACHINA GONZلLEZ 0:50:11 (TR 0:49:39) 385
412 RAUL LEAL CANO 0:50:12 (TR 0:49:40) 386
413 SARA CROZIER 0:50:13 (TR 0:50:04) 27
415 ALBERT MARTI POYO 0:50:14 (TR 0:49:44) 388
414 GABRIEL MIQUEL COSTA 0:50:14 (TR 0:50:09) 387
416 JUAN FELIX ALONSO ALONSO 0:50:16 (TR 0:49:28) 389
417 SERGI CONESA BALAGUÉ 0:50:16 (TR 0:49:49) 390
419 RAQUEL LLOP RلFALES 0:50:17 (TR 0:49:41) 29
418 MIRIAM CRESPILLO NIETO 0:50:17 (TR 0:50:06) 28
420 MARC VALERA DESEMBRE 0:50:18 (TR 0:49:38) 391
421 SONIA ALVAREZ 0:50:18 (TR 0:49:42) 30
422 ROMAN CALAVERA CALVO 0:50:19 (TR 0:49:17) 392
425 VANESSA MIR MOREU 0:50:19 (TR 0:49:18) 31
424 RICARD RAMOS MESSEGUER 0:50:19 (TR 0:49:57) 394
423 FRANCESC GALLART 0:50:19 (TR 0:49:58) 393
426 LLUIS PUERTO 0:50:22 (TR 0:49:43) 395
427 FRANCIS MONTES BONACHERA 0:50:23 (TR 0:49:28) 396
428 DAVID RODRيGUEZ JURADO 0:50:23 (TR 0:50:10) 397
429 FERRAN RECIO 0:50:24 (TR 0:50:12) 398
430 IVAN BENABARRE LLIBRE 0:50:25 (TR 0:50:11) 399
431 PAU SUSIN ALSINA 0:50:28 (TR 0:50:03) 400
432 GUILLE SUSIN CANAL 0:50:28 (TR 0:50:03) 401
433 ALEX BARQUIEL MARTيNEZ 0:50:29 (TR 0:50:00) 402
434 SANTIAGO BRAGULAT I UBEDA 0:50:31 (TR 0:50:06) 403
435 MَNICA MIGUEL ROJO 0:50:33 (TR 0:50:08) 32
437 CARLOS REAL FUSTEL 0:50:34 (TR 0:49:40) 404
438 MIRIAM MONFORT BORRAS 0:50:34 (TR 0:50:09) 34
436 TAMARA RUIZ DELGADO 0:50:34 (TR 0:50:27) 33
439 JOSÉ IGNACIO RODRيGUEZ HERMOSA 0:50:35 (TR 0:50:28) 405
440 VيCTOR MOLINA 0:50:40 (TR 0:50:32) 406
441 FELIX MONROY 0:50:41 (TR 0:49:58) 407
442 AGUSTIN TELLO GARCIA 0:50:48 (TR 0:50:10) 408
443 MANUEL FERNلNDEZ GARZَN 0:50:50 (TR 0:50:33) 409
444 SERGIO TORRAS ROMERO 0:50:52 (TR 0:49:49) 410
445 RUBEN RUBIO CALVET 0:50:53 (TR 0:49:57) 411
446 ANNA VILA RUAIX 0:50:57 (TR 0:50:45) 35
447 DIMAS BARRAS MORGADO 0:50:58 (TR 0:50:22) 412
448 VيCTOR RICHARTE VERGARA 0:51:00 (TR 0:50:15) 413
449 NْRIA DيAZ MOLINS 0:51:01 (TR 0:50:17) 36
451 LOUBNA ARBAOIU 0:51:03 (TR 0:50:27) 37
450 JAVI RODRيGUEZ GَMEZ 0:51:03 (TR 0:50:48) 414
452 FRANCISCO JAVIE PERALTA MARTIN 0:51:04 (TR 0:50:24) 415
453 JORDI SALAZAR DURAN 0:51:06 (TR 0:50:37) 416
455 GONZALO GILI I FABREGAT 0:51:07 (TR 0:50:20) 417
454 ALICIA MOYA MIRALLES 0:51:07 (TR 0:50:56) 38
456 TONI MARTINEZ GIMENEZ 0:51:09 (TR 0:50:30) 418
458 JAVIER JIMÉNEZ NAVARRO 0:51:09 (TR 0:50:45) 420
457 ALBERTO BOSQUE LABARTA 0:51:09 (TR 0:51:03) 419
459 XABI LEGASA 0:51:10 (TR 0:50:53) 421
460 RAMَN SAYَS ORTEGA 0:51:12 (TR 0:50:34) 422
461 ANDRÉS RODRIGUEZ MIRALLES 0:51:13 (TR 0:50:51) 423
462 CARLES BOADA SOLANO 0:51:16 (TR 0:50:25) 424
463 EDUARD PRESEGUÉ MORCILLO 0:51:17 (TR 0:51:06) 425
464 ORIOL FERNANDEZ 0:51:18 (TR 0:51:03) 426
465 DANIEL MORENO BLANCO 0:51:23 (TR 0:51:02) 427
466 LORENA BAGLIETTO 0:51:24 (TR 0:51:07) 39
467 JAIME PONS 0:51:30 (TR 0:50:40) 428
468 ARNAU TOMÀS PÉREZ 0:51:33 (TR 0:51:07) 429
469 TERESA TRILER PLANS 0:51:34 (TR 0:51:27) 40
470 ELISABET CANO RAMIREZ 0:51:35 (TR 0:51:04) 41
471 ALBERT ROMERO MINGOTE 0:51:42 (TR 0:51:33) 430
472 IVAN GOMEZ MARTIN 0:51:44 (TR 0:51:04) 431
473 CARLES LLORENS 0:51:45 (TR 0:51:04) 432
474 JESUS SANCHEZ TORRES 0:51:46 (TR 0:51:09) 433
475 JORDI VELAZQUEZ SELLES 0:51:51 (TR 0:51:06) 434
476 TERESA CHIVA DE LA RIVA 0:51:51 (TR 0:51:29) 42
477 ISABEL MARTيN SILVA 0:51:53 (TR 0:51:10) 43
478 ABEL LَPEZ BUIXEDA 0:51:54 (TR 0:51:22) 435
479 XAVIER LOPEZ VILA 0:51:56 (TR 0:51:31) 436
480 MONTSE NOGUERA PARDILLO 0:51:57 (TR 0:51:10) 44
481 JOSEP BARTRINA SANGLAS 0:51:57 (TR 0:51:17) 437
482 JAVIER PAGE SERRANO 0:51:58 (TR 0:51:15) 438
483 SERGIO RUIZ FIGUERES 0:51:58 (TR 0:51:34) 439
485 ALBERT GARCيA FERNلNDEZ 0:51:59 (TR 0:50:59) 441
484 JAVIER VILLALBA VILA 0:51:59 (TR 0:51:51) 440
487 XAVI MIRET MARTيNEZ 0:52:00 (TR 0:51:25) 443
488 ROBERTO MORENO MORENO 0:52:00 (TR 0:51:32) 444
486 JOSÉ MERIDY PAZ SALVATIERRA 0:52:00 (TR 0:51:39) 442
490 CLARA LOPEZ CASTILLO 0:52:01 (TR 0:51:10) 46
491 RUBEN HERNلNDEZ MUٌOZ 0:52:01 (TR 0:51:10) 445
489 NOELIA LUQUE 0:52:01 (TR 0:51:13) 45
492 ROSSMERY ANDRADE SALINAS 0:52:03 (TR 0:51:11) 47
493 MIGUEL GIMENEZ BORJA 0:52:04 (TR 0:51:58) 446
494 ALBERT RUIZ MARTIN 0:52:05 (TR 0:51:19) 447
495 CARLOS PRATS SلNCHEZ 0:52:08 (TR 0:52:00) 448
496 PERE ARUMI RODRIGO 0:52:09 (TR 0:51:46) 449
497 JOAN URTASUN GIL 0:52:10 (TR 0:51:10) 450
498 RAMON SOLÀ BUSOMS 0:52:11 (TR 0:51:26) 451
499 MARC MESTRES CATALÀ 0:52:12 (TR 0:52:12) 452
502 LLUIS COMELLAS ORTIZ 0:52:13 (TR 0:51:31) 455
500 GUILLEM MARGINET ASSENS 0:52:13 (TR 0:51:43) 453
501 OSCAR REOLID 0:52:13 (TR 0:51:52) 454
503 JUAN CARLOS CASCALES ANGELES 0:52:13 (TR 0:51:52) 456
504 JORDI BARTRINA SANGLAS 0:52:14 (TR 0:51:32) 457
505 DOLO BARTRINA SANGLAS 0:52:14 (TR 0:51:34) 48
506 DAVID RIVAS PACHE 0:52:15 (TR 0:51:46) 458
507 ALICIA GَMEZ ROIG 0:52:16 (TR 0:51:51) 49
509 TONI ALSINA 0:52:17 (TR 0:51:50) 460
508 HARITZ FERNلNDEZ 0:52:17 (TR 0:51:53) 459
510 ERIC ORDOٌEZ RUIZ 0:52:21 (TR 0:51:55) 461
511 MIQUEL HIJAZO PRADES 0:52:21 (TR 0:52:10) 462
512 JORDI MUٌOZ CHANES 0:52:23 (TR 0:52:02) 463
513 ESTEBAN GONZلLEZ YUSTE 0:52:23 (TR 0:52:13) 464
515 LAURA LLAMAS 0:52:24 (TR 0:51:26) 50
514 JESUS BALCELLS PEREZ 0:52:24 (TR 0:51:49) 465
516 LUIS RANGEL ROCAMORA 0:52:27 (TR 0:51:49) 466
517 CLAUDI DE JOSÉ GOMAR 0:52:30 (TR 0:51:49) 467
518 MANUEL DICENTA GIMENEZ 0:52:32 (TR 0:51:40) 468
520 FERRAN CLOSAS MESTRE 0:52:32 (TR 0:51:55) 470
519 JORDI GENEVAT RIBAS 0:52:32 (TR 0:51:56) 469
521 ANTONI IGLESIAS 0:52:37 (TR 0:51:58) 471
522 ALBERTO PEREZ GARCيA 0:52:37 (TR 0:52:06) 472
523 CRISTINA ARTOLA LINAS 0:52:41 (TR 0:51:46) 51
524 XAVIER PEREZ LOPEZ 0:52:43 (TR 0:52:32) 473
525 ZHICHENG GUO 0:52:43 (TR 0:52:43) 474
526 ALBERT MATALOBOS MATALOBOS 0:52:44 (TR 0:52:44) 475
527 ANNA SOPHIA WESTBROOK 0:52:48 (TR 0:51:54) 52
529 JUANJO ANTَN ALVAREZ 0:52:49 (TR 0:52:26) 477
528 ALBERT MEDINA MEDRANO 0:52:49 (TR 0:52:34) 476
530 LLUIS PIQUERA JIMENEZ 0:52:52 (TR 0:51:54) 478
531 JUAN ANTONIO MلRQUEZ SلNCHEZ 0:52:52 (TR 0:52:23) 479
532 FRANCESCO MOSCHELLA DEL OLMO 0:52:54 (TR 0:52:02) 480
533 RUBEN SANDAMIL SORIA 0:52:56 (TR 0:52:46) 481
534 AITOR REGO 0:52:57 (TR 0:52:43) 482
535 LORENZO RUIZ DE LUQUE 0:52:57 (TR 0:52:43) 483
536 ANDREA MARTINEZ MOLINA 0:52:59 (TR 0:52:35) 53
538 TONI MARTINEZ 0:52:59 (TR 0:52:36) 485
537 JAVIER NEILA FLORES 0:52:59 (TR 0:52:50) 484
539 JORDI BRUFAU SOL 0:53:02 (TR 0:51:47) 486
540 PACO TORNERO 0:53:05 (TR 0:52:08) 487
541 IKER GOMEZ ELVIRA 0:53:06 (TR 0:51:53) 488
542 LLORENÇ MALO VILÀ 0:53:06 (TR 0:51:59) 489
543 ANDREU MUٌOZ AMBLÀS 0:53:07 (TR 0:52:09) 490
544 MARTA GINER SEGURA 0:53:08 (TR 0:52:57) 54
545 DANI SOLA ANTْNEZ 0:53:09 (TR 0:52:35) 491
546 JORDI MERCADÉ 0:53:10 (TR 0:52:41) 492
548 SERGIO ABANADES RUIZ 0:53:11 (TR 0:52:27) 493
547 SONIA NAVARRO NUٌEZ 0:53:11 (TR 0:52:56) 55
549 FRANCISCO SANCHEZ VILLEGAS 0:53:12 (TR 0:52:31) 494
550 JUANJO GUIMERÀ NICOLلS 0:53:12 (TR 0:52:33) 495
551 JUAN DE DIOS ES ESCUDERO SIMON 0:53:13 (TR 0:52:36) 496
552 ISA MARTIN RODRIGUEZ 0:53:14 (TR 0:52:16) 56
553 MIRIAN RODRIGUEZ 0:53:14 (TR 0:52:30) 57
554 ELENA MAIRELES CABEZAS 0:53:16 (TR 0:52:24) 58
555 AGUSTيN ALDAZلBAL GIL 0:53:18 (TR 0:52:05) 497
556 JORDI BENAVENT 0:53:18 (TR 0:52:25) 498
557 CRISTINA BOCOS TORRES 0:53:19 (TR 0:52:45) 59
558 JAVI MENDEZ RUIZ 0:53:19 (TR 0:52:45) 499
559 JESْS MARTRAT SOTIL 0:53:21 (TR 0:52:09) 500
560 JORDI GORDO FUENTES 0:53:25 (TR 0:52:24) 501
562 JAVIER ANTَN MARTيNEZ 0:53:26 (TR 0:52:46) 503
561 JUAN LَPEZ MUٌOZ 0:53:26 (TR 0:52:55) 502
563 LUIS MANUEL MARTINEZ DIAZ 0:53:27 (TR 0:52:47) 504
564 MARيA JESْS MARTيN 0:53:28 (TR 0:53:04) 60
567 MANUEL MARTINEZ MUٌOZ 0:53:33 (TR 0:52:39) 506
565 RAUL LEIVA 0:53:33 (TR 0:52:47) 505
566 MARIA MARIٌO 0:53:33 (TR 0:53:08) 61
568 SٍNIA GUBERN MURCIA 0:53:35 (TR 0:52:50) 62
569 CARLES FONT CLADELLAS 0:53:38 (TR 0:53:16) 507
570 OSCAR ALLUÉ 0:53:39 (TR 0:52:51) 508
571 SILVIA RIAL VILAR 0:53:41 (TR 0:53:35) 63
572 MARIO EGIDIO BIANCHI . 0:53:42 (TR 0:52:58) 509
573 RAFAEL AVILA ORTEGA 0:53:43 (TR 0:53:32) 510
574 CARLES POMAR 0:53:44 (TR 0:52:41) 511
576 FCO ANTONIO VILLALON PACHECO 0:53:44 (TR 0:53:05) 513
575 EMILIANO GARCIA 0:53:44 (TR 0:53:24) 512
578 EVA MASSO LAGO 0:53:45 (TR 0:53:34) 64
577 KIRIAN CARETA FREIXA 0:53:45 (TR 0:53:38) 514
579 JOAN PUERTO ANTUNEZ 0:53:46 (TR 0:53:12) 515
580 ANNA PALOMA SERRA 0:53:48 (TR 0:53:33) 65
581 PEDRO FCO. PÉREZ I NIETO 0:53:50 (TR 0:52:52) 516
582 RICKY LECHUGA CISNEROS 0:53:51 (TR 0:52:47) 517
583 DAVID CUCURELL VEGA 0:53:51 (TR 0:52:48) 518
584 MANUEL COUSO FARRERONS 0:53:52 (TR 0:53:28) 519
585 JORDI ROJO ARANSAY 0:53:54 (TR 0:53:43) 520
586 MARC PITARCH SALGADO 0:53:55 (TR 0:53:12) 521
587 JORDI PÉREZ CANO 0:53:56 (TR 0:53:24) 522
588 JOSÉ ANTONIO RODRIGUEZ VAZQUEZ 0:53:58 (TR 0:53:21) 523
589 JUAN CARLOS RODRIGUEZ VAZQUEZ 0:53:58 (TR 0:53:21) 524
590 PAULA FERNلNDEZ-OCHOA 0:53:59 (TR 0:53:15) 66
591 RAFA ORELLANA 0:53:59 (TR 0:53:15) 525
592 JESْS MARINA ORTEGA 0:54:01 (TR 0:53:41) 526
593 MARICEL VALENCIA DIAZ 0:54:03 (TR 0:53:09) 67
594 JAIME VIZCAINO MATEU 0:54:04 (TR 0:53:37) 527
595 LAIA BALLESTER TORRENS 0:54:07 (TR 0:53:55) 68
596 DAVID BERMEJO POLLO 0:54:09 (TR 0:53:55) 528
598 JOAQUيN PADRَN 0:54:11 (TR 0:53:25) 530
597 TONI FOJ ALONSO 0:54:11 (TR 0:53:37) 529
599 JOSEP MARIA TERRER NADAL 0:54:13 (TR 0:53:24) 531
600 SILVIA CODINACHS PUJOLS 0:54:14 (TR 0:53:49) 69
601 DAVID CODINA PUJOLS 0:54:14 (TR 0:53:49) 532
602 JORGE SلENZ DE TEJADA MILLلN 0:54:15 (TR 0:53:29) 533
603 MONTSERRAT MARTيN-TERESO DEULOFEU 0:54:16 (TR 0:54:02) 70
605 DANILO PEٌA MAQUEIRA 0:54:19 (TR 0:53:16) 535
604 MIGUEL ANGEL JIMÉNEZ GARCIA 0:54:19 (TR 0:53:17) 534
606 LOURDES MARTIN LEIVA 0:54:21 (TR 0:53:50) 71
607 JORDI PALMÉS ESTADELLA 0:54:26 (TR 0:53:39) 536
608 VيCTOR VALLS GAVALDA 0:54:26 (TR 0:53:46) 537
609 ROSA PALOMO PERELLَ 0:54:27 (TR 0:54:07) 72
610 CARLOS LOZANO MELERO 0:54:29 (TR 0:53:47) 538
611 SANDRA CLAVER 0:54:32 (TR 0:54:12) 73
612 MIRIAM NUٌEZ GARCIA 0:54:34 (TR 0:54:17) 74
613 JORDI PALOMO TARDيO 0:54:37 (TR 0:54:05) 539
614 TESSA VAN DROMME 0:54:38 (TR 0:53:40) 75
615 JAVIER GARCIA DEL RIO MARTIN 0:54:39 (TR 0:53:46) 540
616 GABRIEL JEREZ RAMOS 0:54:40 (TR 0:53:50) 541
617 SALVI VIDAL PRATS 0:54:42 (TR 0:53:48) 542
618 JOSÉ LUIS LَPEZ MORENO 0:54:42 (TR 0:54:30) 543
619 MARIA ROMERO GIMÉNEZ 0:54:42 (TR 0:54:30) 76
620 JOAN VILLAR-I-MARTي 0:54:43 (TR 0:54:05) 544
621 DANIEL SERRA LَPEZ 0:54:44 (TR 0:53:49) 545
622 MELI COSTA 0:54:44 (TR 0:54:26) 77
623 ALBERTO LَPEZ LIZ 0:54:47 (TR 0:53:50) 546
624 JOAQUيN MARيA ALBISU FERNلNDEZ DE ARCAYA 0:54:48 (TR 0:53:49) 547
625 DAVID TORRECILLAS BLANES 0:54:49 (TR 0:54:35) 548
626 FRANCESC LOPEZ BRU 0:54:53 (TR 0:54:22) 549
627 RICARD MOYA CAMي 0:54:56 (TR 0:54:12) 550
629 JOSEP LLORCA PASCUAL 0:54:57 (TR 0:53:48) 552
628 GONZALO ANGEL HERNلNDEZ 0:54:57 (TR 0:54:21) 551
630 ABEL JARIA 0:55:00 (TR 0:54:38) 553
631 SONIA GORDO FUENTES 0:55:02 (TR 0:54:01) 78
632 Mھ DOLORS AGUSI VILARASAU 0:55:03 (TR 0:54:19) 79
633 TOMÀS ESCOFET PUJOL 0:55:03 (TR 0:54:54) 554
634 FERNANDO GUILLÉN MINELLI 0:55:05 (TR 0:54:56) 555
635 LUCA FRITTOLI 0:55:06 (TR 0:54:39) 556
636 DOROTEO CANO MONTALVO 0:55:08 (TR 0:54:36) 557
637 CRISTINA FERNANDEZ LANA 0:55:09 (TR 0:54:19) 80
638 MIQUEL GINESTA MANRESA 0:55:09 (TR 0:54:36) 558
639 HECTOR HERNANDEZ EDO 0:55:11 (TR 0:54:53) 559
640 XAVIER VERA CAMPS 0:55:13 (TR 0:54:55) 560
643 RICARDO BLANCO SANCHEZ 0:55:15 (TR 0:54:29) 562
641 NORMA DELIA DيAZ VERGARA 0:55:15 (TR 0:54:39) 81
642 OSCAR RICO JARA 0:55:15 (TR 0:54:49) 561
644 LUIS SAIZ MARTINEZ 0:55:16 (TR 0:54:20) 563
645 JOSEPH SWAFFIELD 0:55:17 (TR 0:54:28) 564
646 MAURICI PALOUZIÉ GARCÉS 0:55:17 (TR 0:54:30) 565
647 CECILI GIL INÉS 0:55:19 (TR 0:54:22) 566
648 CÉSAR LOZANO GARROTE 0:55:20 (TR 0:54:16) 567
649 LAURA GODOY ORTIGOSA 0:55:21 (TR 0:54:51) 568
650 RAMON CAPILLAS SISQUELLA 0:55:25 (TR 0:54:40) 569
651 LLUيS OCAٌA MAٌÉ 0:55:25 (TR 0:54:40) 570
652 MARTA BARBANY CABA 0:55:27 (TR 0:54:45) 82
653 MIQUEL BARBANY ESCURSELL 0:55:27 (TR 0:54:45) 571
654 CESC DOMINGO LَPEZ 0:55:27 (TR 0:54:45) 572
655 ANNA BARBANY CABA 0:55:27 (TR 0:54:45) 83
656 ESTEVE SANFELIU FÀBREGAS 0:55:28 (TR 0:55:13) 573
657 FERMIN SERRANO GARCIA 0:55:30 (TR 0:55:25) 574
659 PERE PUIG 0:55:31 (TR 0:54:30) 576
658 NICOLAS JIMENEZ 0:55:31 (TR 0:54:31) 575
660 ROSA PIJUAN 0:55:32 (TR 0:55:24) 84
661 MIQUEL COLL PUJOL 0:55:34 (TR 0:55:20) 577
662 SIN DATOS DEL DORSAL 1595 0:55:35 (TR 0:54:33) 578
663 LUIS SERRANO ARANDA 0:55:37 (TR 0:54:38) 579
664 CARLOS PEDRAZA ESLAVA 0:55:39 (TR 0:54:38) 580
665 EMILIO GALLEGO QUINTANA 0:55:39 (TR 0:54:38) 581
667 IGNASI VIDAL-RIBAS ESCUBَS 0:55:40 (TR 0:54:39) 582
666 JْLIA MUٌOZ 0:55:40 (TR 0:54:47) 85
668 MARIA MASDEFIOL 0:55:40 (TR 0:54:48) 86
669 VICTOR ZUٌIGA DELGADO 0:55:40 (TR 0:55:29) 583
670 ESTHER DيAZ FERNلNDEZ 0:55:40 (TR 0:55:40) 87
671 MIQUEL GIL HERNلNDEZ 0:55:41 (TR 0:54:30) 584
672 DAVID MUٌOZ MARTINEZ 0:55:41 (TR 0:54:31) 585
673 MIGUEL ANGEL GALINDO PRIETO 0:55:42 (TR 0:54:46) 586
674 ELENA ESCURA ESTEBAN 0:55:42 (TR 0:54:51) 88
675 CARLES BENET 0:55:42 (TR 0:55:13) 587
676 QUERALT GRANE PORTA 0:55:44 (TR 0:55:09) 89
677 J.A. PALACيN PORTÉ 0:55:44 (TR 0:55:31) 588
678 ANTONIO CUBEL JIMÉNEZ 0:55:45 (TR 0:54:53) 589
679 LLUIS PUJOL CASTELLA 0:55:47 (TR 0:55:08) 590
680 JUAN ANTONIO RODRيGUEZ MOLINA 0:55:49 (TR 0:55:37) 591
681 JOAN LAHOZ VAQUER 0:55:54 (TR 0:55:11) 592
682 ENRIQUE AGUILERA DEL AMO 0:55:55 (TR 0:55:21) 593
684 ROGER CASTELLS AGUILÀ 0:55:56 (TR 0:55:29) 595
683 JOAN GARSSOT CARRERAS 0:55:56 (TR 0:55:38) 594
685 MARI DIAZ NAVARRO 0:55:57 (TR 0:55:50) 90
686 CRISTIAN GARCIA DIAZ 0:55:59 (TR 0:55:06) 596
687 SERGIO RODRيGUEZ VICENTE 0:56:00 (TR 0:55:05) 597
688 RAQUEL BORRAS MASVIDAL 0:56:00 (TR 0:55:51) 91
689 ARANZAZU CAMPOS YUGUEROS 0:56:01 (TR 0:55:22) 92
690 SUSANA ALVAREZ CAMINOS 0:56:01 (TR 0:55:22) 93
691 YOLANDA LUCIA JIMENEZ 0:56:02 (TR 0:55:49) 94
692 ALBA RUIZ MUٌOZ 0:56:03 (TR 0:55:33) 95
694 MANUEL RODRIGUEZ ALSINA 0:56:06 (TR 0:55:03) 599
693 ALBERT CORTADELLA VILLAGRل 0:56:06 (TR 0:55:44) 598
697 OLGA SIMO GUERRERO 0:56:07 (TR 0:54:59) 96
695 JORDI BOADA ANDREU 0:56:07 (TR 0:55:41) 600
696 ANDRES LORITE 0:56:07 (TR 0:55:56) 601
698 FRANCISCO ARTACHO VALVERDE 0:56:08 (TR 0:55:09) 602
699 YOLANDA GALERA PARDO 0:56:09 (TR 0:55:08) 97
700 VANESSA CALDERON MUٌOZ 0:56:11 (TR 0:55:29) 98
702 ERNEST MARTORELL RICART 0:56:12 (TR 0:55:24) 603
701 OLGA MILLAN LOPEZ 0:56:12 (TR 0:55:25) 99
703 CECILIO MORENO GOMEZ 0:56:15 (TR 0:56:01) 604
704 DAVID RAMيREZ LَPEZ 0:56:16 (TR 0:55:44) 605
705 MARI CARMEN DيAZ GARCيA 0:56:16 (TR 0:55:44) 100
706 NْRIA JOSEP BERTRAN 0:56:20 (TR 0:56:01) 101
708 VICENÇ JOSEP PEDRERO 0:56:20 (TR 0:56:01) 606
707 LLUÏSA BERTRAN GONZALEZ 0:56:20 (TR 0:56:02) 102
711 JOSÉ MANUEL MUNUERA GARCيA 0:56:21 (TR 0:55:08) 609
710 SERGI PASANS 0:56:21 (TR 0:55:32) 608
709 ALBERT RODRيGUEZ PÉREZ 0:56:21 (TR 0:56:21) 607
712 MARCO ANTONIO LَPEZ MANCHADO 0:56:23 (TR 0:55:26) 610
713 MELANIA RODRيGUEZ AGUILAR 0:56:23 (TR 0:56:16) 103
715 ALEJANDRO GARCIA SURROCA 0:56:24 (TR 0:55:10) 612
714 DANI VIZCAINO VILLANUEVA 0:56:24 (TR 0:56:19) 611
716 DAVID CUADRADO FORTEA 0:56:25 (TR 0:55:31) 613
717 FERMيN LARIOS GRANADO 0:56:26 (TR 0:55:37) 614
718 CARLES IBAٌEZ LOPEZ 0:56:26 (TR 0:55:48) 615
719 VICTٍRIA MORENO PANIAGUA 0:56:27 (TR 0:55:50) 104
720 EDUARD VAN WIERINGEN 0:56:32 (TR 0:55:46) 616
721 FRANCISCO MELLADO MARCHAN 0:56:34 (TR 0:56:24) 617
722 ROSA MARTINEZ SOLA 0:56:35 (TR 0:55:30) 105
723 AARON TUR JUAN 0:56:36 (TR 0:56:36) 618
725 JUAN JOSE MARTINEZ CALVO 0:56:47 (TR 0:55:38) 619
726 FRANCESC DIAZ LEIVA 0:56:47 (TR 0:55:55) 620
724 MERITXELL RUIZ MARTIN 0:56:47 (TR 0:56:02) 106
727 JOSEP DE MARTي 0:56:48 (TR 0:56:18) 621
729 MIGUEL MORENO GَMEZ 0:56:58 (TR 0:56:07) 622
728 LAURA TORRENS FERNلNDEZ 0:56:58 (TR 0:56:08) 107
730 JOAN VALLS GARCIA 0:56:58 (TR 0:56:16) 623
731 OLGA AYMERICH GONZلLEZ 0:56:59 (TR 0:56:17) 108
732 LAURA RIBERA 0:57:03 (TR 0:56:04) 109
733 REBECA RAMALLO FERNلNDEZ 0:57:04 (TR 0:56:41) 110
734 GEMMA BELZUNCES GONZلLEZ 0:57:05 (TR 0:56:12) 111
736 LLUIS HERNANDEZ MAS 0:57:07 (TR 0:55:50) 625
735 GABRIEL JEREZ EGEA 0:57:07 (TR 0:56:17) 624
737 MARC CARBَ MESTRE 0:57:09 (TR 0:56:29) 626
738 CARLOS PAYTUVI PLANA 0:57:11 (TR 0:56:21) 627
739 SUSANA GARCIA DESPLAT 0:57:13 (TR 0:56:23) 112
740 DANI REY FAURA 0:57:14 (TR 0:56:40) 628
741 ALBERT SAIZ CASALS 0:57:15 (TR 0:56:41) 629
742 JORDI FOLCH MAS 0:57:21 (TR 0:56:54) 630
743 XAVI PIJOAN MIQUEL 0:57:25 (TR 0:56:15) 631
744 CARLA ALMIRALL CARRANDI 0:57:26 (TR 0:56:32) 113
745 SILVIA DIAZ HERNANZ 0:57:29 (TR 0:57:13) 114
746 RAMIRO CUEVAS PÉREZ 0:57:32 (TR 0:57:24) 632
747 SILVIA MARTINEZ SOLA 0:57:33 (TR 0:56:29) 115
749 MَNICA RUIZ VEGA 0:57:34 (TR 0:56:55) 116
748 BERNARDO LAVIٌA PESCADOR 0:57:34 (TR 0:57:25) 633
750 ADRIÀ ANGUERA CASUT 0:57:36 (TR 0:56:43) 634
751 SIN DATOS DEL DORSAL 1602 0:57:37 (TR 0:56:44) 635
752 RUBEN MATEU CEREZUELA 0:57:39 (TR 0:56:31) 636
753 ALBERT BAIGES ABARDIA 0:57:40 (TR 0:57:01) 637
754 JOSE MARIN 0:57:40 (TR 0:57:15) 638
755 PABLO DE SARRAGA BARTLETT 0:57:43 (TR 0:56:40) 639
756 JOAN PONS BALIELLAS 0:57:50 (TR 0:57:29) 640
758 MARيA GUADALUPE CANCHOLA AGUILAR 0:57:51 (TR 0:57:38) 117
757 FERRAN TERUEL CARRILLO 0:57:51 (TR 0:57:39) 641
759 CÉSAR PALMERO 0:57:52 (TR 0:57:28) 642
760 ALBERTO CلNOVAS GARCيA 0:57:53 (TR 0:56:49) 643
761 ELISABET GARCIA LOPEZ 0:57:54 (TR 0:56:50) 118
762 AITOR FERNANDEZ DE CASTILLO PIQUERAS 0:57:54 (TR 0:56:50) 644
763 RAQUEL JANES GARCIA 0:57:55 (TR 0:56:52) 119
764 SANDRA DOMيNGUEZ LEBRَN 0:57:57 (TR 0:57:41) 120
765 PAU FERRER GUILAMANY 0:57:58 (TR 0:57:33) 645
766 ERIK WEBER JENSEN 0:58:01 (TR 0:57:49) 646
767 SEBASTIAN JIMENEZ CABALLERO 0:58:03 (TR 0:57:54) 647
769 JOAQUيN FEERNلNDEZ AMIGO 0:58:04 (TR 0:57:56) 649
768 XAVI MARTIN 0:58:04 (TR 0:57:57) 648
770 LARA LOPEZ 0:58:06 (TR 0:57:31) 121
771 ALBERT BARRIL LECHA 0:58:11 (TR 0:57:26) 650
772 JOSEP M ROMA CASCALLَ 0:58:12 (TR 0:57:26) 651
773 MAITE MORILLO MONTES 0:58:13 (TR 0:57:58) 122
774 PABLO SEBASTIلN VOLPE 0:58:16 (TR 0:57:42) 652
775 MARTA MONTENEGRO EXPOSITO 0:58:16 (TR 0:57:44) 123
776 JORDI LEIVA ROMERO 0:58:17 (TR 0:57:10) 653
777 JOAN DELGADO FERNÀNDEZ 0:58:17 (TR 0:57:10) 654
778 JOSEP Mھ HILARIO SANZ 0:58:18 (TR 0:57:11) 655
779 JESUS JORDAN ANDUJAR 0:58:20 (TR 0:57:14) 656
780 NINA SEBE 0:58:20 (TR 0:57:14) 124
781 ALBA JORNET ARDEVOL 0:58:24 (TR 0:57:22) 125
782 XAVIER NAVAL MARCOS 0:58:24 (TR 0:57:52) 657
783 ANGELS LOZANO GARZON 0:58:27 (TR 0:58:10) 126
784 ALICIA ROMERO LَPEZ 0:58:27 (TR 0:58:10) 127
785 CARMEN LOSADA LOPEZ 0:58:28 (TR 0:57:19) 128
786 ALEX ARCOS 0:58:30 (TR 0:57:23) 658
788 MARIA RUEDA GَMEZ 0:58:31 (TR 0:57:25) 129
787 ADRIAN CORRIONERO DIAZ 0:58:31 (TR 0:57:26) 659
789 DANIEL PÉREZ RODRيGUEZ 0:58:32 (TR 0:57:26) 660
791 JOSE PEREZ BOTE 0:58:33 (TR 0:57:57) 662
790 DAVID ROMAN MORALEDA HIDALGO 0:58:33 (TR 0:58:23) 661
792 FRANCISCO MORA MORA 0:58:34 (TR 0:57:58) 663
793 JAUME RODRيGUEZ MIR 0:58:36 (TR 0:58:18) 664
794 DENIA VERHOEF 0:58:38 (TR 0:57:51) 130
795 OSCAR LLAMAS 0:58:38 (TR 0:57:51) 665
796 ALESSANDRO VERZOLA 0:58:39 (TR 0:57:56) 666
797 BEATRIZ LLORCA RODRIGUEZ 0:58:43 (TR 0:57:34) 131
798 CARLES MELLADO FABREGAS 0:58:43 (TR 0:57:41) 667
799 JORDI LLACER GONZALEZ 0:58:44 (TR 0:58:22) 668
800 MAPI DUFOL 0:58:48 (TR 0:58:15) 132
802 CARLOS MAESTRE LUENGO 0:58:50 (TR 0:57:42) 669
803 MARIA SUBIAS CLEMENTE 0:58:50 (TR 0:57:43) 134
801 ELENA BAKISHEVA 0:58:50 (TR 0:58:39) 133
805 MARC BATLLE DURAN 0:58:52 (TR 0:57:50) 670
806 MARTA DURAN SANTARROMANA 0:58:52 (TR 0:57:51) 136
804 VICKY PEREZ 0:58:52 (TR 0:58:18) 135
807 ANA QUESADA VALENZUELA 0:58:53 (TR 0:57:53) 137
808 LLUC MERCADÉ 0:58:54 (TR 0:57:58) 671
809 EDITH SIERRA GARCIA 0:58:56 (TR 0:58:05) 138
810 NORBERTO MACAS VEGA 0:58:57 (TR 0:58:44) 672
812 RAْL MARTيN REINA 0:59:00 (TR 0:58:19) 674
811 RAFAEL ESPEJO PEREZ 0:59:00 (TR 0:58:27) 673
813 MARC RAMBLA 0:59:00 (TR 0:58:27) 675
815 SERGI TORRES HUETE 0:59:01 (TR 0:58:19) 677
814 MANUEL ESPEJO ZANUY 0:59:01 (TR 0:58:28) 676
817 M TAIS ARP GUERRA 0:59:02 (TR 0:57:59) 139
816 MARTI MASVIDAL ALIBERCH 0:59:02 (TR 0:58:06) 678
818 SONIA VICENS QUILES 0:59:02 (TR 0:58:31) 140
819 RAQUEL RUANO UJAQUE 0:59:04 (TR 0:58:11) 141
820 MONICA NEBRA 0:59:04 (TR 0:58:55) 142
821 ELISABET BRANCHAT FREIXA 0:59:05 (TR 0:58:15) 143
822 CARMEN GONFAU PALENZUELA 0:59:07 (TR 0:57:58) 144
823 IGNACIO BLANCO GUILLERMO 0:59:07 (TR 0:58:42) 679
824 JORDI ROCA MARCELَ 0:59:07 (TR 0:58:46) 680
825 YOLANDA MORAL 0:59:08 (TR 0:58:12) 145
826 ENRIC CONANGLA MAYOR 0:59:11 (TR 0:58:08) 681
827 JEROEN BUIJS 0:59:16 (TR 0:58:26) 682
828 CARMEN NARCISA CAGUANA ROMERO 0:59:16 (TR 0:58:28) 146
829 XAVIER BALDRICH DRAGO 0:59:17 (TR 0:58:19) 683
831 LAURA GUBIERAS LILLO 0:59:20 (TR 0:58:21) 148
830 CRISTINA MORA ORTEGA 0:59:20 (TR 0:58:23) 147
832 JORDI CAMPOS 0:59:21 (TR 0:59:02) 684
834 LORENZO BERSIANI 0:59:22 (TR 0:58:17) 685
833 OLGA VILAR PAYA 0:59:22 (TR 0:58:39) 149
835 OSCAR TOMÀS PÉREZ 0:59:23 (TR 0:58:57) 686
836 PENÉLOPE ACERO CAYUELA 0:59:24 (TR 0:58:33) 150
837 JAUME GRANE VICTORI 0:59:24 (TR 0:58:49) 687
838 ELSA RUIZ MUٌOZ 0:59:25 (TR 0:58:54) 151
839 SERGIO REDONDO IBAٌEZ 0:59:28 (TR 0:58:14) 688
840 CRISTINA MORENO 0:59:31 (TR 0:58:26) 152
841 ISIDRO CUENCA GARCIA 0:59:31 (TR 0:58:26) 689
843 PACO ALBA 0:59:32 (TR 0:58:35) 690
842 EUGENIA MERCHAN SALCES 0:59:32 (TR 0:59:15) 153
844 SUSANA PEREZ GARCIA 0:59:37 (TR 0:58:36) 154
845 SANTIAGO SANS VALLS 0:59:38 (TR 0:59:12) 691
846 JUDITH GIL CARNOTA 0:59:39 (TR 0:59:12) 155
847 RAUL CABRÉ GUIRAO 0:59:47 (TR 0:58:44) 692
848 ELISABET LOSADA 0:59:49 (TR 0:58:39) 156
849 LEO VAZQUEZ SANTIAGO 0:59:51 (TR 0:58:32) 693
850 FRAN GRANERO PEREZ 0:59:56 (TR 0:58:52) 694
851 POL BERCH CASTELLVي 0:59:57 (TR 0:59:14) 695
852 LAURA FERRARA PEINADO 0:59:57 (TR 0:59:14) 157
853 GEMMA PEDRَ 0:59:58 (TR 0:59:49) 158
855 VANESSA ESTEVE JIMÉNEZ 1:00:00 (TR 0:59:11) 159
854 MANUEL PALOMO RODRIGUEZ 1:00:00 (TR 0:59:25) 696
856 MIREIA CASTANYS 1:00:13 (TR 0:59:21) 160
857 AVELINO GARRIDO HERNلNDEZ 1:00:14 (TR 1:00:10) 697
858 GEMMA FUSTEGUERES ROSICH 1:00:16 (TR 0:59:17) 161
859 JESSICA GALVEZ 1:00:17 (TR 0:59:57) 162
860 SERGI DIAZ GARCIA 1:00:17 (TR 0:59:58) 698
861 LOURDES MORENO FLAMARICH 1:00:25 (TR 0:59:36) 163
862 ALBERT FLORES ROGADO 1:00:30 (TR 0:59:15) 699

0 comentarios :

Publicar un comentario